Time;durP1;ratioP1;P1;durP2;ratioP2;P2;SDS_P1;SDS_P2;PMS_P1;PMS_P2;Temp;Humidity;BMP_temperature;BMP_pressure;BME280_temperature;BME280_humidity;BME280_pressure;Samples;Min_cycle;Max_cycle;Signal;HPM_P1;HPM_P2
2023/10/02 00:02:40;;;;;;;12.02;7.88;;;;;;;;;;10330702;28;20018;-65
2023/10/02 00:07:45;;;;;;;12.75;7.22;;;;;;;;;;10329804;28;20065;-67
2023/10/02 00:12:58;;;;;;;14.20;7.68;;;;;;;;;;10329111;28;20065;-63
2023/10/02 00:17:58;;;;;;;18.65;7.85;;;;;;;;;;10329742;28;20106;-66
2023/10/02 00:23:01;;;;;;;10.50;7.65;;;;;;;;;;10329667;28;20466;-64
2023/10/02 00:28:08;;;;;;;12.57;7.68;;;;;;;;;;10328717;28;20033;-62
2023/10/02 00:33:11;;;;;;;14.32;7.90;;;;;;;;;;10328425;28;20453;-64
2023/10/02 00:38:11;;;;;;;11.05;7.70;;;;;;;;;;10328682;28;20050;-65
2023/10/02 00:48:33;;;;;;;14.65;8.50;;;;;;;;;;10327981;28;20546;-67
2023/10/02 00:53:45;;;;;;;13.05;8.10;;;;;;;;;;10326988;28;20505;-65
2023/10/02 00:59:14;;;;;;;18.33;8.02;;;;;;;;;;10341748;28;20034;-67
2023/10/02 01:04:28;;;;;;;10.43;7.78;;;;;;;;;;10328118;28;20040;-62
2023/10/02 01:09:30;;;;;;;10.48;7.80;;;;;;;;;;10327361;28;20026;-67
2023/10/02 01:19:53;;;;;;;11.00;8.18;;;;;;;;;;10327591;28;20022;-68
2023/10/02 01:25:14;;;;;;;9.30;7.65;;;;;;;;;;10342609;28;20027;-67
2023/10/02 01:30:18;;;;;;;12.98;8.15;;;;;;;;;;10326863;28;20109;-64
2023/10/02 01:35:19;;;;;;;11.85;7.65;;;;;;;;;;10327126;28;20027;-63
2023/10/02 01:40:33;;;;;;;10.60;8.43;;;;;;;;;;10331805;28;20397;-65
2023/10/02 01:45:34;;;;;;;11.52;8.38;;;;;;;;;;10335441;28;20054;-64
2023/10/02 01:50:38;;;;;;;11.18;8.82;;;;;;;;;;10334623;28;20026;-66
2023/10/02 01:55:39;;;;;;;14.20;8.70;;;;;;;;;;10334821;28;20382;-66
2023/10/02 02:00:42;;;;;;;11.82;8.75;;;;;;;;;;10334561;28;20026;-66
2023/10/02 02:05:46;;;;;;;14.27;8.88;;;;;;;;;;10334343;28;20425;-67
2023/10/02 02:10:48;;;;;;;9.88;8.27;;;;;;;;;;10333949;28;20621;-57
2023/10/02 02:16:07;;;;;;;12.18;9.32;;;;;;;;;;10334387;28;20050;-57
2023/10/02 02:21:10;;;;;;;15.75;8.77;;;;;;;;;;10333784;28;20513;-66
2023/10/02 02:26:21;;;;;;;11.60;9.63;;;;;;;;;;10333622;28;20116;-63
2023/10/02 02:31:31;;;;;;;11.50;9.27;;;;;;;;;;10333962;28;20191;-64
2023/10/02 02:36:35;;;;;;;14.05;9.25;;;;;;;;;;10333806;28;20053;-67
2023/10/02 02:41:37;;;;;;;12.32;9.27;;;;;;;;;;10333141;28;20463;-67
2023/10/02 02:46:53;;;;;;;15.35;9.18;;;;;;;;;;10332770;28;20108;-64
2023/10/02 02:51:56;;;;;;;14.60;8.43;;;;;;;;;;10332404;28;20034;-66
2023/10/02 02:56:58;;;;;;;13.45;9.43;;;;;;;;;;10332626;28;20022;-66
2023/10/02 03:02:21;;;;;;;14.75;8.80;;;;;;;;;;10332404;28;20060;-63
2023/10/02 03:07:29;;;;;;;11.82;8.68;;;;;;;;;;10332187;28;20037;-66
2023/10/02 03:12:30;;;;;;;11.15;9.38;;;;;;;;;;10347922;23;20130;-61
2023/10/02 03:17:30;;;;;;;12.45;8.68;;;;;;;;;;10337021;28;20102;-62
2023/10/02 03:22:33;;;;;;;13.10;9.45;;;;;;;;;;10333427;28;20612;-62
2023/10/02 03:27:36;;;;;;;17.25;9.32;;;;;;;;;;10331606;28;20359;-60
2023/10/02 03:32:45;;;;;;;14.90;9.43;;;;;;;;;;10331224;28;20462;-61
2023/10/02 03:37:51;;;;;;;11.85;9.23;;;;;;;;;;10331773;28;20034;-60
2023/10/02 03:42:54;;;;;;;18.42;8.52;;;;;;;;;;10331595;28;20030;-60
2023/10/02 03:48:02;;;;;;;14.30;9.10;;;;;;;;;;10331422;28;20118;-64
2023/10/02 03:53:12;;;;;;;12.57;9.07;;;;;;;;;;10329402;28;20046;-63
2023/10/02 03:58:13;;;;;;;11.38;8.10;;;;;;;;;;10331142;28;20444;-63
2023/10/02 04:03:14;;;;;;;10.40;8.45;;;;;;;;;;10329046;28;20469;-64
2023/10/02 04:13:15;;;;;;;7.97;5.72;;;;;;;;;;10328495;28;20593;-65
2023/10/02 04:18:45;;;;;;;23.95;6.55;;;;;;;;;;10329117;28;20474;-63
2023/10/02 04:23:42;;;;;;;16.33;5.53;;;;;;;;;;10329106;28;20038;-62
2023/10/02 04:28:49;;;;;;;6.68;5.28;;;;;;;;;;10328948;28;20401;-62
2023/10/02 04:33:52;;;;;;;8.38;4.93;;;;;;;;;;10329950;28;20054;-62
2023/10/02 04:38:55;;;;;;;6.63;4.90;;;;;;;;;;10329221;28;20422;-62
2023/10/02 04:43:57;;;;;;;9.48;5.38;;;;;;;;;;10328741;28;20058;-64
2023/10/02 04:48:59;;;;;;;6.55;5.03;;;;;;;;;;10328824;28;20113;-62
2023/10/02 04:54:05;;;;;;;7.88;4.60;;;;;;;;;;10327873;28;20034;-62
2023/10/02 04:59:05;;;;;;;6.63;4.55;;;;;;;;;;10327992;28;20245;-64
2023/10/02 05:04:07;;;;;;;8.25;4.47;;;;;;;;;;10328092;28;20026;-63
2023/10/02 05:15:07;;;;;;;19.30;5.60;;;;;;;;;;10327728;28;20074;-65
2023/10/02 05:25:20;;;;;;;13.52;5.15;;;;;;;;;;10241299;29;20668;-68
2023/10/02 05:30:21;;;;;;;14.00;5.13;;;;;;;;;;10241088;29;20098;-67
2023/10/02 05:35:23;;;;;;;8.93;4.57;;;;;;;;;;10241069;29;20410;-67
2023/10/02 05:50:48;;;;;;;10.13;5.20;;;;;;;;;;10240985;29;20114;-68
2023/10/02 05:56:05;;;;;;;15.93;5.50;;;;;;;;;;10245300;28;20031;-68
2023/10/02 06:01:18;;;;;;;13.98;5.93;;;;;;;;;;10326704;28;20030;-68
2023/10/02 06:06:21;;;;;;;20.75;5.88;;;;;;;;;;10326464;28;20042;-67
2023/10/02 06:11:26;;;;;;;24.20;5.90;;;;;;;;;;10326522;28;20186;-67
2023/10/02 06:16:30;;;;;;;11.57;5.70;;;;;;;;;;10326241;28;20030;-67
2023/10/02 06:21:32;;;;;;;21.30;5.93;;;;;;;;;;10325324;28;20037;-69
2023/10/02 06:26:49;;;;;;;19.17;6.75;;;;;;;;;;10328608;28;20030;-68
2023/10/02 06:32:09;;;;;;;13.60;5.80;;;;;;;;;;10331171;28;20097;-67
2023/10/02 06:37:19;;;;;;;15.02;5.63;;;;;;;;;;10332620;28;20038;-67
2023/10/02 06:42:21;;;;;;;9.95;5.72;;;;;;;;;;10333243;28;20359;-67
2023/10/02 06:47:28;;;;;;;10.00;5.72;;;;;;;;;;10332928;28;20447;-68
2023/10/02 06:52:32;;;;;;;10.20;5.18;;;;;;;;;;10331531;28;20030;-67
2023/10/02 06:57:36;;;;;;;14.02;5.50;;;;;;;;;;10332646;28;20031;-67
2023/10/02 07:02:38;;;;;;;16.00;5.95;;;;;;;;;;10332412;28;20379;-67
2023/10/02 07:07:58;;;;;;;10.60;5.45;;;;;;;;;;10331546;28;20041;-67
2023/10/02 07:13:18;;;;;;;11.60;5.20;;;;;;;;;;10331886;28;20105;-67
2023/10/02 07:18:20;;;;;;;7.35;4.88;;;;;;;;;;10331872;28;20070;-67
2023/10/02 07:23:20;;;;;;;11.15;5.63;;;;;;;;;;10331882;28;20033;-67
2023/10/02 07:28:21;;;;;;;7.65;4.95;;;;;;;;;;10331263;28;20038;-67
2023/10/02 07:33:22;;;;;;;11.52;5.07;;;;;;;;;;10331513;28;20022;-69
2023/10/02 07:38:30;;;;;;;9.40;5.25;;;;;;;;;;10329708;28;20497;-67
2023/10/02 07:43:30;;;;;;;;;;;;;;;;;;10330313;28;20026;-67
2023/10/02 07:48:35;;;;;;;11.67;5.33;;;;;;;;;;10330653;28;19913;-67
2023/10/02 07:53:39;;;;;;;8.23;4.85;;;;;;;;;;10330264;28;20486;-67
2023/10/02 07:58:41;;;;;;;9.60;5.18;;;;;;;;;;10330644;28;20145;-70
2023/10/02 08:03:45;;;;;;;10.63;5.50;;;;;;;;;;10330378;28;20121;-69
2023/10/02 08:14:34;;;;;;;9.52;4.95;;;;;;;;;;10329321;28;20050;-69
2023/10/02 08:19:32;;;;;;;8.15;5.32;;;;;;;;;;10329225;28;20108;-69
2023/10/02 08:24:37;;;;;;;12.00;5.00;;;;;;;;;;10329661;28;20033;-67
2023/10/02 08:29:38;;;;;;;6.43;4.65;;;;;;;;;;10328785;28;20037;-67
2023/10/02 08:34:39;;;;;;;9.35;5.00;;;;;;;;;;10329246;28;20026;-67
2023/10/02 08:39:41;;;;;;;7.40;4.88;;;;;;;;;;10328946;28;20034;-67
2023/10/02 08:44:43;;;;;;;9.35;5.30;;;;;;;;;;10328868;28;20026;-68
2023/10/02 08:49:47;;;;;;;10.93;5.13;;;;;;;;;;10327792;28;20119;-69
2023/10/02 08:54:50;;;;;;;8.32;4.70;;;;;;;;;;10328007;28;20169;-69
2023/10/02 09:00:13;;;;;;;8.05;4.70;;;;;;;;;;10328290;28;20533;-68
2023/10/02 09:05:14;;;;;;;8.55;5.05;;;;;;;;;;10326829;28;20023;-68
2023/10/02 09:10:25;;;;;;;13.32;5.05;;;;;;;;;;10327652;28;20038;-67
2023/10/02 09:15:31;;;;;;;8.50;4.88;;;;;;;;;;10328037;28;20034;-67
2023/10/02 09:20:53;;;;;;;7.18;4.50;;;;;;;;;;10327943;28;20118;-69
2023/10/02 09:26:21;;;;;;;8.07;4.68;;;;;;;;;;10327171;28;20493;-67
2023/10/02 09:31:24;;;;;;;;;;;;;;;;;;10328212;28;20030;-67
2023/10/02 09:36:36;;;;;;;10.25;5.13;;;;;;;;;;10325779;28;19909;-67
2023/10/02 09:41:36;;;;;;;6.13;4.50;;;;;;;;;;10327281;28;20031;-67
2023/10/02 09:46:39;;;;;;;8.43;4.82;;;;;;;;;;10325519;28;20030;-68
2023/10/02 09:52:15;;;;;;;6.65;4.68;;;;;;;;;;10326687;28;20026;-67
2023/10/02 09:57:25;;;;;;;6.78;4.13;;;;;;;;;;10325709;28;20065;-69
2023/10/02 10:07:58;;;;;;;11.00;4.97;;;;;;;;;;10334899;28;20065;-67
2023/10/02 10:13:09;;;;;;;7.30;4.80;;;;;;;;;;10334120;28;20054;-67
2023/10/02 10:18:13;;;;;;;7.68;4.55;;;;;;;;;;10333022;28;20490;-67
2023/10/02 10:23:34;;;;;;;10.95;5.25;;;;;;;;;;10333893;28;20023;-67
2023/10/02 10:28:51;;;;;;;9.85;5.20;;;;;;;;;;10334006;28;20536;-67
2023/10/02 10:33:51;;;;;;;8.45;4.63;;;;;;;;;;10334127;28;20041;-67
2023/10/02 10:38:54;;;;;;;6.60;4.78;;;;;;;;;;10333225;28;20049;-67
2023/10/02 10:43:55;;;;;;;8.25;4.45;;;;;;;;;;10333035;28;20084;-67
2023/10/02 10:49:19;;;;;;;6.85;4.95;;;;;;;;;;10333841;28;20305;-67
2023/10/02 10:54:25;;;;;;;6.95;4.68;;;;;;;;;;10332618;28;20026;-67
2023/10/02 10:59:34;;;;;;;6.63;4.72;;;;;;;;;;10332990;28;20034;-67
2023/10/02 11:04:47;;;;;;;5.72;4.38;;;;;;;;;;10332344;28;20152;-67
2023/10/02 11:10:19;;;;;;;6.03;4.57;;;;;;;;;;10332096;28;20031;-66
2023/10/02 11:20:39;;;;;;;7.82;4.40;;;;;;;;;;10331827;28;20062;-69
2023/10/02 11:25:53;;;;;;;5.55;4.60;;;;;;;;;;10331461;28;20038;-67
2023/10/02 11:31:30;;;;;;;6.22;4.75;;;;;;;;;;10331349;28;20022;-67
2023/10/02 11:36:34;;;;;;;6.40;3.95;;;;;;;;;;10331681;28;20018;-66
2023/10/02 11:41:38;;;;;;;7.78;4.28;;;;;;;;;;10331218;28;20033;-67
2023/10/02 11:46:40;;;;;;;5.75;4.05;;;;;;;;;;10330460;28;20037;-67
2023/10/02 11:51:43;;;;;;;5.18;3.75;;;;;;;;;;10329985;28;20022;-67
2023/10/02 11:56:46;;;;;;;9.25;4.30;;;;;;;;;;10330145;28;20459;-68
2023/10/02 12:01:47;;;;;;;7.90;4.63;;;;;;;;;;10329933;28;20142;-67
2023/10/02 12:06:50;;;;;;;7.53;4.28;;;;;;;;;;10329699;28;20034;-66
2023/10/02 12:11:51;;;;;;;5.55;4.18;;;;;;;;;;10328665;28;20038;-66
2023/10/02 12:16:57;;;;;;;8.48;4.45;;;;;;;;;;10328207;28;20077;-67
2023/10/02 12:21:58;;;;;;;6.07;4.30;;;;;;;;;;10327257;28;20031;-69
2023/10/02 12:27:00;;;;;;;6.22;4.63;;;;;;;;;;10327649;28;20034;-69
2023/10/02 12:32:01;;;;;;;6.45;4.47;;;;;;;;;;10327024;28;20030;-67
2023/10/02 12:37:01;;;;;;;14.52;4.97;;;;;;;;;;10327352;28;20042;-68
2023/10/02 12:42:03;;;;;;;7.40;4.57;;;;;;;;;;10327296;28;20023;-69
2023/10/02 12:47:04;;;;;;;7.68;4.47;;;;;;;;;;10326584;28;20266;-69
2023/10/02 12:52:05;;;;;;;6.85;4.45;;;;;;;;;;10326375;28;20276;-69
2023/10/02 12:57:07;;;;;;;9.88;4.57;;;;;;;;;;10326518;28;20205;-68
2023/10/02 13:02:08;;;;;;;11.90;4.85;;;;;;;;;;10326045;28;20019;-68
2023/10/02 13:07:09;;;;;;;7.07;4.72;;;;;;;;;;10325858;28;20030;-67
2023/10/02 13:12:09;;;;;;;8.60;4.93;;;;;;;;;;10287772;28;1134662;-68
2023/10/02 13:17:11;;;;;;;7.35;4.38;;;;;;;;;;10328193;28;20489;-69
2023/10/02 13:22:11;;;;;;;6.97;4.50;;;;;;;;;;10327462;28;20023;-69
2023/10/02 13:27:17;;;;;;;10.60;4.47;;;;;;;;;;10327510;28;20462;-67
2023/10/02 13:32:18;;;;;;;5.82;4.15;;;;;;;;;;10326913;28;20022;-69
2023/10/02 13:37:20;;;;;;;8.88;4.57;;;;;;;;;;10326244;28;20031;-68
2023/10/02 13:42:20;;;;;;;8.57;4.13;;;;;;;;;;10326763;28;20398;-69
2023/10/02 13:47:22;;;;;;;12.18;4.50;;;;;;;;;;10327131;28;20030;-67
2023/10/02 13:52:23;;;;;;;11.75;4.30;;;;;;;;;;10327490;28;20038;-69
2023/10/02 13:57:23;;;;;;;8.43;4.85;;;;;;;;;;10327548;28;20034;-69
2023/10/02 14:02:25;;;;;;;9.40;4.63;;;;;;;;;;10326444;28;20030;-69
2023/10/02 14:07:25;;;;;;;8.23;4.80;;;;;;;;;;10326322;28;20085;-69
2023/10/02 14:12:26;;;;;;;10.45;4.90;;;;;;;;;;10326382;28;20050;-69
2023/10/02 14:17:27;;;;;;;6.95;4.72;;;;;;;;;;10326079;28;20124;-69
2023/10/02 14:22:27;;;;;;;5.75;4.70;;;;;;;;;;10326704;28;20173;-69
2023/10/02 14:27:28;;;;;;;6.63;4.50;;;;;;;;;;10326390;28;20041;-69
2023/10/02 14:32:28;;;;;;;6.68;4.60;;;;;;;;;;10326293;28;20541;-66
2023/10/02 14:37:29;;;;;;;8.90;4.68;;;;;;;;;;10326000;28;20467;-66
2023/10/02 14:42:30;;;;;;;8.32;4.45;;;;;;;;;;10324419;28;20442;-66
2023/10/02 14:47:35;;;;;;;8.98;4.93;;;;;;;;;;10330276;28;20045;-67
2023/10/02 14:52:35;;;;;;;7.70;4.47;;;;;;;;;;10331903;28;20032;-66
2023/10/02 14:57:37;;;;;;;9.77;4.68;;;;;;;;;;10332425;28;20030;-68
2023/10/02 15:02:38;;;;;;;10.50;5.28;;;;;;;;;;10332177;28;20438;-66
2023/10/02 15:07:38;;;;;;;7.63;4.85;;;;;;;;;;10332478;28;20085;-67
2023/10/02 15:12:39;;;;;;;6.00;4.20;;;;;;;;;;10331611;28;20112;-66
2023/10/02 15:17:45;;;;;;;5.78;4.55;;;;;;;;;;10331915;28;20030;-69
2023/10/02 15:22:49;;;;;;;7.15;4.47;;;;;;;;;;10331340;28;20022;-69
2023/10/02 15:27:52;;;;;;;7.47;4.22;;;;;;;;;;10329980;28;20022;-69
2023/10/02 15:32:55;;;;;;;6.95;4.43;;;;;;;;;;10331059;28;20422;-69
2023/10/02 15:38:01;;;;;;;6.30;4.30;;;;;;;;;;10330884;28;20522;-69
2023/10/02 15:43:03;;;;;;;6.78;4.47;;;;;;;;;;10331586;28;20030;-69
2023/10/02 15:48:03;;;;;;;5.03;4.30;;;;;;;;;;10330508;28;20030;-69
2023/10/02 15:53:05;;;;;;;4.97;4.45;;;;;;;;;;10330379;28;20026;-68
2023/10/02 15:58:08;;;;;;;11.48;4.63;;;;;;;;;;10329811;28;20026;-69
2023/10/02 16:03:09;;;;;;;5.82;4.20;;;;;;;;;;10329844;28;20027;-69
2023/10/02 16:08:10;;;;;;;6.13;4.53;;;;;;;;;;10330118;28;20246;-69
2023/10/02 16:13:11;;;;;;;5.63;4.40;;;;;;;;;;10329447;28;20262;-69
2023/10/02 16:18:11;;;;;;;5.80;4.43;;;;;;;;;;10329777;28;20031;-69
2023/10/02 16:23:12;;;;;;;5.88;4.40;;;;;;;;;;10329610;28;20037;-69
2023/10/02 16:28:12;;;;;;;6.13;4.70;;;;;;;;;;10328850;28;20026;-69
2023/10/02 16:33:13;;;;;;;8.90;4.00;;;;;;;;;;10328586;28;20363;-69
2023/10/02 16:38:14;;;;;;;5.78;4.32;;;;;;;;;;10328995;28;20030;-69
2023/10/02 16:43:15;;;;;;;6.60;4.55;;;;;;;;;;10328212;28;20030;-69
2023/10/02 16:48:15;;;;;;;5.60;4.25;;;;;;;;;;10328188;28;20447;-69
2023/10/02 16:53:17;;;;;;;4.68;3.90;;;;;;;;;;10327314;28;20026;-69
2023/10/02 16:58:17;;;;;;;6.03;4.35;;;;;;;;;;10328519;28;20073;-69
2023/10/02 17:03:20;;;;;;;7.05;4.82;;;;;;;;;;10327751;28;20047;-69
2023/10/02 17:08:20;;;;;;;6.57;4.05;;;;;;;;;;10328542;28;20077;-69
2023/10/02 17:13:21;;;;;;;6.50;4.60;;;;;;;;;;10327222;28;20038;-69
2023/10/02 17:18:22;;;;;;;7.22;4.72;;;;;;;;;;10328202;28;20037;-69
2023/10/02 17:23:24;;;;;;;7.55;4.35;;;;;;;;;;10327095;28;20034;-70
2023/10/02 17:28:28;;;;;;;6.63;4.82;;;;;;;;;;10327514;28;20038;-70
2023/10/02 17:33:28;;;;;;;7.07;4.72;;;;;;;;;;10326614;28;20030;-69
2023/10/02 17:38:29;;;;;;;5.75;4.35;;;;;;;;;;10326768;28;20034;-68
2023/10/02 17:43:30;;;;;;;6.68;4.60;;;;;;;;;;10326337;28;20033;-67
2023/10/02 17:48:31;;;;;;;7.70;5.13;;;;;;;;;;10326657;28;20034;-67
2023/10/02 17:53:31;;;;;;;8.13;5.30;;;;;;;;;;10324803;28;20061;-67
2023/10/02 17:58:32;;;;;;;10.43;5.10;;;;;;;;;;10323086;28;20026;-67
2023/10/02 18:03:32;;;;;;;9.68;5.05;;;;;;;;;;10325699;28;20029;-67
2023/10/02 18:08:33;;;;;;;10.20;5.60;;;;;;;;;;10324532;28;20035;-67
2023/10/02 18:13:34;;;;;;;12.82;6.38;;;;;;;;;;10325663;28;20046;-67
2023/10/02 18:18:34;;;;;;;17.67;5.93;;;;;;;;;;10325007;28;20050;-67
2023/10/02 18:23:36;;;;;;;10.85;5.65;;;;;;;;;;10332057;28;20022;-68
2023/10/02 18:28:36;;;;;;;16.60;5.68;;;;;;;;;;10333264;28;20463;-67
2023/10/02 18:33:38;;;;;;;10.73;5.82;;;;;;;;;;10333286;28;20131;-68
2023/10/02 18:38:38;;;;;;;9.77;5.10;;;;;;;;;;10333551;28;20030;-68
2023/10/02 18:43:39;;;;;;;10.82;5.63;;;;;;;;;;10333063;28;20290;-68
2023/10/02 18:48:41;;;;;;;15.13;5.95;;;;;;;;;;10333362;28;20093;-69
2023/10/02 18:53:41;;;;;;;14.00;5.28;;;;;;;;;;10332316;28;20429;-70
2023/10/02 18:58:42;;;;;;;15.43;5.38;;;;;;;;;;10331803;28;20026;-68
2023/10/02 19:03:45;;;;;;;22.13;5.63;;;;;;;;;;10329399;28;20033;-63
2023/10/02 19:08:46;;;;;;;9.02;5.07;;;;;;;;;;10328625;28;20030;-69
2023/10/02 19:13:48;;;;;;;15.00;5.13;;;;;;;;;;10328898;28;20137;-67
2023/10/02 19:18:56;;;;;;;29.05;5.30;;;;;;;;;;10329834;28;20221;-67
2023/10/02 19:23:58;;;;;;;13.27;4.55;;;;;;;;;;10332307;28;20023;-64
2023/10/02 19:29:02;;;;;;;10.60;5.38;;;;;;;;;;10330929;28;20274;-66
2023/10/02 19:34:04;;;;;;;7.80;4.68;;;;;;;;;;10328270;28;20030;-69
2023/10/02 19:39:07;;;;;;;18.88;5.43;;;;;;;;;;10330709;28;20038;-68
2023/10/02 19:44:08;;;;;;;19.23;5.57;;;;;;;;;;10329137;28;20030;-67
2023/10/02 19:49:09;;;;;;;7.00;4.18;;;;;;;;;;10330042;28;20030;-66
2023/10/02 19:54:09;;;;;;;18.80;5.65;;;;;;;;;;10330833;28;20026;-69
2023/10/02 19:59:11;;;;;;;16.77;5.10;;;;;;;;;;10331159;28;20277;-67
2023/10/02 20:04:12;;;;;;;13.57;6.03;;;;;;;;;;10329651;28;20536;-66
2023/10/02 20:09:13;;;;;;;8.50;4.53;;;;;;;;;;10329894;28;20037;-67
2023/10/02 20:14:15;;;;;;;12.52;5.25;;;;;;;;;;10329343;28;20046;-68
2023/10/02 20:19:17;;;;;;;21.85;4.95;;;;;;;;;;10328050;28;20590;-65
2023/10/02 20:24:20;;;;;;;10.95;4.97;;;;;;;;;;10329183;28;20122;-65
2023/10/02 20:29:21;;;;;;;14.80;4.75;;;;;;;;;;10329650;28;20058;-68
2023/10/02 20:34:21;;;;;;;14.27;4.95;;;;;;;;;;10329323;28;20112;-66
2023/10/02 20:39:22;;;;;;;7.82;4.45;;;;;;;;;;10328929;28;20027;-66
2023/10/02 20:44:23;;;;;;;7.35;4.47;;;;;;;;;;10328170;28;20035;-66
2023/10/02 20:49:23;;;;;;;8.20;4.53;;;;;;;;;;10328328;28;20084;-66
2023/10/02 20:54:24;;;;;;;10.68;4.70;;;;;;;;;;10327496;28;20037;-66
2023/10/02 20:59:25;;;;;;;9.95;4.75;;;;;;;;;;10328103;28;20034;-66
2023/10/02 21:04:25;;;;;;;5.38;4.22;;;;;;;;;;10328341;28;20459;-67
2023/10/02 21:09:26;;;;;;;8.80;4.45;;;;;;;;;;10326586;28;20418;-67
2023/10/02 21:14:26;;;;;;;7.22;4.45;;;;;;;;;;10327500;28;20100;-66
2023/10/02 21:19:27;;;;;;;5.70;4.18;;;;;;;;;;10328047;28;20022;-65
2023/10/02 21:24:31;;;;;;;7.82;4.50;;;;;;;;;;10327751;28;20527;-67
2023/10/02 21:29:31;;;;;;;6.78;4.32;;;;;;;;;;10327721;28;20129;-67
2023/10/02 21:34:32;;;;;;;8.65;4.13;;;;;;;;;;10327395;28;20478;-67
2023/10/02 21:39:32;;;;;;;8.88;4.05;;;;;;;;;;10326970;28;20482;-67
2023/10/02 21:44:37;;;;;;;6.95;4.47;;;;;;;;;;10327146;28;20374;-68
2023/10/02 21:49:38;;;;;;;5.72;4.20;;;;;;;;;;10325008;28;20035;-67
2023/10/02 21:54:40;;;;;;;6.20;3.85;;;;;;;;;;10327080;28;20042;-66
2023/10/02 21:59:40;;;;;;;5.70;4.03;;;;;;;;;;10334780;28;20042;-68
2023/10/02 22:04:41;;;;;;;8.95;4.28;;;;;;;;;;10334871;28;20037;-67
2023/10/02 22:09:41;;;;;;;6.80;4.40;;;;;;;;;;10334697;28;20042;-67
2023/10/02 22:14:43;;;;;;;8.52;4.43;;;;;;;;;;10333974;28;20391;-68
2023/10/02 22:19:44;;;;;;;5.68;4.10;;;;;;;;;;10334813;28;20038;-65
2023/10/02 22:24:45;;;;;;;5.55;3.70;;;;;;;;;;10334092;28;20045;-66
2023/10/02 22:29:46;;;;;;;5.35;3.97;;;;;;;;;;10333856;28;20429;-67
2023/10/02 22:34:47;;;;;;;5.93;3.80;;;;;;;;;;10333771;28;20113;-65
2023/10/02 22:39:49;;;;;;;5.38;3.70;;;;;;;;;;10333236;28;20037;-66
2023/10/02 22:44:49;;;;;;;6.03;3.83;;;;;;;;;;10333151;28;20019;-65
2023/10/02 22:49:50;;;;;;;6.28;3.63;;;;;;;;;;10333046;28;20524;-65
2023/10/02 22:54:51;;;;;;;9.35;4.35;;;;;;;;;;10333484;28;20460;-66
2023/10/02 22:59:54;;;;;;;4.85;3.65;;;;;;;;;;10332342;28;20394;-63
2023/10/02 23:04:55;;;;;;;6.25;4.15;;;;;;;;;;10332400;28;20385;-66
2023/10/02 23:09:55;;;;;;;5.05;3.95;;;;;;;;;;10331440;28;20026;-66
2023/10/02 23:14:56;;;;;;;4.60;3.53;;;;;;;;;;10332157;28;20352;-65
2023/10/02 23:19:57;;;;;;;5.95;3.70;;;;;;;;;;10331987;28;20386;-65
2023/10/02 23:24:59;;;;;;;7.75;3.70;;;;;;;;;;10331702;28;20037;-64
2023/10/02 23:30:00;;;;;;;9.07;4.20;;;;;;;;;;10331441;28;20030;-65
2023/10/02 23:35:02;;;;;;;5.00;3.67;;;;;;;;;;10330844;28;20525;-62
2023/10/02 23:40:04;;;;;;;7.00;3.35;;;;;;;;;;10329766;28;20054;-66
2023/10/02 23:45:14;;;;;;;6.53;3.58;;;;;;;;;;10331341;28;20065;-65
2023/10/02 23:50:18;;;;;;;6.93;3.70;;;;;;;;;;10330248;28;20046;-66
2023/10/02 23:55:23;;;;;;;3.40;3.10;;;;;;;;;;10330680;28;20041;-67
